Time,TemperatureF,DewpointF,PressureIn,WindDirection,WindDirectionDegrees,WindSpeedMPH,WindSpeedGustMPH,Humidity,HourlyPrecipIn,Conditions,Clouds,dailyrainin,SoftwareType,DateUTC
2013-10-02 01:30:00,69.3,69.0,30.05,South,180,0.0,0.0,99,0.00,,,0.00,WUHU21623XXSP,2013-10-02 06:30:00,
2013-10-02 01:55:00,68.9,68.6,30.05,South,180,0.0,0.0,99,0.00,,,0.00,WUHU21623XXSP,2013-10-02 06:55:00,
2013-10-02 02:00:00,68.9,68.6,30.05,South,180,0.0,0.0,99,0.00,,,0.00,WUHU21623XXSP,2013-10-02 07:00:00,
2013-10-02 02:17:00,68.2,67.9,30.05,South,180,0.0,0.0,99,0.00,,,0.00,WUHU21623XXSP,2013-10-02 07:17:00,
2013-10-02 02:22:00,68.2,67.9,30.05,South,180,0.0,0.0,99,0.00,,,0.00,WUHU21623XXSP,2013-10-02 07:22:00,
2013-10-02 02:27:00,68.2,67.9,30.04,South,180,0.0,0.0,99,0.00,,,0.00,WUHU21623XXSP,2013-10-02 07:27:00,
2013-10-02 02:32:00,68.2,67.9,30.05,South,180,0.0,0.0,99,0.00,,,0.00,WUHU21623XXSP,2013-10-02 07:32:00,
2013-10-02 02:37:00,68.2,67.9,30.05,South,180,0.0,0.0,99,0.00,,,0.00,WUHU21623XXSP,2013-10-02 07:37:00,
2013-10-02 02:42:00,68.2,67.9,30.05,South,180,0.0,0.0,99,0.00,,,0.00,WUHU21623XXSP,2013-10-02 07:42:00,
2013-10-02 02:47:00,68.2,67.9,30.05,South,180,0.0,0.0,99,0.00,,,0.00,WUHU21623XXSP,2013-10-02 07:47:00,
2013-10-02 02:52:00,68.2,67.9,30.05,South,180,0.0,0.0,99,0.00,,,0.00,WUHU21623XXSP,2013-10-02 07:52:00,
2013-10-02 02:57:00,67.8,67.5,30.05,South,180,0.0,0.0,99,0.00,,,0.00,WUHU21623XXSP,2013-10-02 07:57:00,
2013-10-02 03:02:00,67.8,67.5,30.05,South,180,0.0,0.0,99,0.00,,,0.00,WUHU21623XXSP,2013-10-02 08:02:00,
2013-10-02 11:40:00,76.5,76.2,30.10,SSW,202,0.0,0.0,99,0.00,,,0.00,WUHU21623XXSP,2013-10-02 16:40:00,
2013-10-02 12:25:00,78.6,76.5,30.08,South,180,0.0,0.0,93,0.00,,,0.00,WUHU21623XXSP,2013-10-02 17:25:00,
2013-10-02 12:30:00,77.9,75.8,30.08,SSE,157,0.0,0.0,93,0.00,,,0.00,WUHU21623XXSP,2013-10-02 17:30:00,
2013-10-02 12:35:00,77.7,75.9,30.08,South,180,0.0,0.0,94,0.00,,,0.00,WUHU21623XXSP,2013-10-02 17:35:00,
2013-10-02 12:40:00,76.8,74.7,30.08,South,180,0.0,0.0,93,0.00,,,0.00,WUHU21623XXSP,2013-10-02 17:40:00,
2013-10-02 12:45:00,75.0,73.2,30.07,SSW,202,0.0,0.0,94,0.00,,,0.00,WUHU21623XXSP,2013-10-02 17:45:00,
2013-10-02 12:50:00,73.9,72.1,30.07,WSW,247,0.0,0.0,94,0.00,,,0.00,WUHU21623XXSP,2013-10-02 17:50:00,
2013-10-02 12:55:00,73.0,71.2,30.06,SSE,157,0.0,0.0,94,0.00,,,0.00,WUHU21623XXSP,2013-10-02 17:55:00,
2013-10-02 13:00:00,73.0,71.2,30.07,SSW,202,0.0,0.0,94,0.00,,,0.00,WUHU21623XXSP,2013-10-02 18:00:00,
2013-10-02 13:05:00,73.2,71.4,30.07,South,180,0.0,0.0,94,0.00,,,0.00,WUHU21623XXSP,2013-10-02 18:05:00,
2013-10-02 13:10:00,75.0,73.2,30.07,SW,225,0.0,0.0,94,0.00,,,0.00,WUHU21623XXSP,2013-10-02 18:10:00,
2013-10-02 13:15:00,77.2,75.0,30.07,SW,225,0.0,0.0,93,0.00,,,0.00,WUHU21623XXSP,2013-10-02 18:15:00,
2013-10-02 13:20:00,80.2,77.3,30.06,SSW,202,0.0,0.0,91,0.00,,,0.00,WUHU21623XXSP,2013-10-02 18:20:00,
2013-10-02 13:25:00,80.8,77.7,30.06,South,180,0.0,0.0,91,0.00,,,0.00,WUHU21623XXSP,2013-10-02 18:25:00,
2013-10-02 13:30:00,81.7,78.4,30.05,SW,225,0.0,0.0,90,0.00,,,0.00,WUHU21623XXSP,2013-10-02 18:30:00,
2013-10-02 13:35:00,82.6,78.8,30.05,South,180,0.0,0.0,90,0.00,,,0.00,WUHU21623XXSP,2013-10-02 18:35:00,
2013-10-02 13:40:00,84.4,80.4,30.05,SSE,157,0.0,0.0,88,0.00,,,0.00,WUHU21623XXSP,2013-10-02 18:40:00,
2013-10-02 13:45:00,85.3,81.3,30.05,SSE,157,0.0,0.0,88,0.00,,,0.00,WUHU21623XXSP,2013-10-02 18:45:00,
2013-10-02 13:50:00,86.5,82.2,30.05,South,180,17.7,17.7,87,0.00,,,0.00,WUHU21623XXSP,2013-10-02 18:50:00,
2013-10-02 13:55:00,86.5,82.2,30.04,SSW,202,0.0,17.7,87,0.00,,,0.00,WUHU21623XXSP,2013-10-02 18:55:00,
2013-10-02 14:00:00,85.1,81.5,30.04,SSE,157,14.1,14.1,88,0.00,,,0.00,WUHU21623XXSP,2013-10-02 19:00:00,
2013-10-02 14:05:00,85.8,81.7,30.03,South,180,0.0,14.1,89,0.00,,,0.00,WUHU21623XXSP,2013-10-02 19:05:00,
2013-10-02 14:10:00,85.6,81.7,30.03,South,180,0.0,0.0,88,0.00,,,0.00,WUHU21623XXSP,2013-10-02 19:10:00,
2013-10-02 14:15:00,84.2,80.6,30.03,SSE,157,5.6,5.6,89,0.00,,,0.00,WUHU21623XXSP,2013-10-02 19:15:00,
2013-10-02 14:20:00,82.8,79.5,30.02,SSW,202,0.0,5.6,90,0.00,,,0.00,WUHU21623XXSP,2013-10-02 19:20:00,
2013-10-02 14:25:00,83.7,80.4,30.02,South,180,0.0,1.8,90,0.00,,,0.00,WUHU21623XXSP,2013-10-02 19:25:00,
2013-10-02 14:30:00,84.0,80.4,30.02,South,180,0.0,1.8,89,0.00,,,0.00,WUHU21623XXSP,2013-10-02 19:30:00,
2013-10-02 14:35:00,82.0,78.8,30.02,SSW,202,0.0,0.4,90,0.00,,,0.00,WUHU21623XXSP,2013-10-02 19:35:00,
2013-10-02 14:40:00,81.1,78.2,30.02,SSE,157,0.0,0.4,91,0.00,,,0.00,WUHU21623XXSP,2013-10-02 19:40:00,
2013-10-02 14:45:00,80.8,77.9,30.02,SSW,202,0.0,0.0,91,0.00,,,0.00,WUHU21623XXSP,2013-10-02 19:45:00,
2013-10-02 14:50:00,81.9,78.6,30.02,SSE,157,0.4,0.4,90,0.00,,,0.00,WUHU21623XXSP,2013-10-02 19:50:00,
2013-10-02 14:55:00,84.0,80.1,30.01,SSE,157,0.0,0.4,88,0.00,,,0.00,WUHU21623XXSP,2013-10-02 19:55:00,
2013-10-02 15:00:00,84.0,80.1,30.01,South,180,3.1,3.1,88,0.00,,,0.00,WUHU21623XXSP,2013-10-02 20:00:00,
2013-10-02 15:05:00,84.6,80.6,30.01,South,180,0.0,3.1,88,0.00,,,0.00,WUHU21623XXSP,2013-10-02 20:05:00,
2013-10-02 15:10:00,86.4,82.4,30.01,SE,135,9.6,9.6,88,0.00,,,0.00,WUHU21623XXSP,2013-10-02 20:10:00,
2013-10-02 15:15:00,88.0,83.6,30.01,South,180,0.0,9.6,87,0.00,,,0.00,WUHU21623XXSP,2013-10-02 20:15:00,
2013-10-02 15:20:00,87.4,82.4,30.01,South,180,0.0,11.0,85,0.00,,,0.00,WUHU21623XXSP,2013-10-02 20:20:00,
2013-10-02 15:25:00,87.3,82.9,30.00,SSE,157,0.0,11.0,87,0.00,,,0.00,WUHU21623XXSP,2013-10-02 20:25:00,
2013-10-02 15:30:00,88.5,84.2,30.01,WSW,247,17.2,17.2,87,0.00,,,0.00,WUHU21623XXSP,2013-10-02 20:30:00,
2013-10-02 15:35:00,88.0,83.3,30.01,SSE,157,12.8,17.2,86,0.00,,,0.00,WUHU21623XXSP,2013-10-02 20:35:00,
2013-10-02 15:40:00,86.9,82.6,30.01,SSE,157,13.9,15.9,87,0.00,,,0.00,WUHU21623XXSP,2013-10-02 20:40:00,
2013-10-02 15:45:00,85.3,81.7,30.01,South,180,0.0,13.9,89,0.00,,,0.00,WUHU21623XXSP,2013-10-02 20:45:00,
2013-10-02 15:50:00,84.4,81.1,30.00,South,180,0.0,7.2,90,0.00,,,0.00,WUHU21623XXSP,2013-10-02 20:50:00,
2013-10-02 15:55:00,83.5,81.1,30.00,South,180,0.0,7.2,91,0.00,,,0.00,WUHU21623XXSP,2013-10-02 20:55:00,
2013-10-02 16:00:00,82.8,80.0,29.99,SSW,202,0.0,0.0,91,0.00,,,0.00,WUHU21623XXSP,2013-10-02 21:00:00,
2013-10-02 16:05:00,82.9,79.8,29.99,SSW,202,0.0,0.0,91,0.00,,,0.00,WUHU21623XXSP,2013-10-02 21:05:00,
2013-10-02 16:10:00,84.0,80.2,30.00,SW,225,0.0,0.0,90,0.00,,,0.00,WUHU21623XXSP,2013-10-02 21:10:00,
2013-10-02 16:15:00,85.1,81.5,29.99,South,180,0.0,2.2,89,0.00,,,0.00,WUHU21623XXSP,2013-10-02 21:15:00,
2013-10-02 16:20:00,86.2,82.6,29.99,SSE,157,16.6,16.6,89,0.00,,,0.00,WUHU21623XXSP,2013-10-02 21:20:00,
2013-10-02 16:25:00,85.6,81.7,29.99,WSW,247,10.5,16.6,88,0.00,,,0.00,WUHU21623XXSP,2013-10-02 21:25:00,
2013-10-02 16:30:00,86.2,82.6,29.99,WSW,247,13.0,13.0,89,0.00,,,0.00,WUHU21623XXSP,2013-10-02 21:30:00,
2013-10-02 16:35:00,86.5,82.9,29.99,WSW,247,7.6,13.0,89,0.00,,,0.00,WUHU21623XXSP,2013-10-02 21:35:00,
2013-10-02 16:40:00,85.6,81.7,29.99,SSE,157,0.0,16.8,88,0.00,,,0.00,WUHU21623XXSP,2013-10-02 21:40:00,
2013-10-02 16:45:00,84.7,81.1,29.99,South,180,0.0,16.8,89,0.00,,,0.00,WUHU21623XXSP,2013-10-02 21:45:00,
2013-10-02 16:50:00,84.4,80.8,29.99,South,180,13.4,13.4,89,0.00,,,0.00,WUHU21623XXSP,2013-10-02 21:50:00,
2013-10-02 16:55:00,84.2,81.0,29.99,SSE,157,0.0,13.4,90,0.00,,,0.00,WUHU21623XXSP,2013-10-02 21:55:00,
2013-10-02 17:00:00,83.7,81.1,29.98,SSW,202,0.0,0.0,91,0.00,,,0.00,WUHU21623XXSP,2013-10-02 22:00:00,
2013-10-02 17:05:00,82.8,80.0,29.99,SW,225,0.0,0.0,91,0.00,,,0.00,WUHU21623XXSP,2013-10-02 22:05:00,
2013-10-02 17:10:00,82.0,79.1,29.99,SSW,202,0.0,0.0,91,0.00,,,0.00,WUHU21623XXSP,2013-10-02 22:10:00,
2013-10-02 17:15:00,81.3,78.4,29.98,South,180,3.8,12.1,91,0.00,,,0.00,WUHU21623XXSP,2013-10-02 22:15:00,
2013-10-02 17:20:00,80.4,78.2,29.99,SSW,202,0.0,12.1,92,0.00,,,0.00,WUHU21623XXSP,2013-10-02 22:20:00,
2013-10-02 17:25:00,80.2,77.7,29.99,South,180,0.0,0.0,92,0.00,,,0.00,WUHU21623XXSP,2013-10-02 22:25:00,
2013-10-02 17:30:00,79.9,77.3,29.99,SSW,202,0.0,0.0,92,0.00,,,0.00,WUHU21623XXSP,2013-10-02 22:30:00,
2013-10-02 17:35:00,79.3,76.8,29.99,South,180,0.0,0.0,93,0.00,,,0.00,WUHU21623XXSP,2013-10-02 22:35:00,
2013-10-02 17:40:00,79.2,77.1,29.98,South,180,0.0,0.0,93,0.00,,,0.00,WUHU21623XXSP,2013-10-02 22:40:00,
2013-10-02 17:45:00,79.0,76.8,29.99,SSW,202,0.0,0.0,93,0.00,,,0.00,WUHU21623XXSP,2013-10-02 22:45:00,
2013-10-02 17:51:00,78.4,76.3,29.99,SSE,157,0.0,0.0,93,0.00,,,0.00,WUHU21623XXSP,2013-10-02 22:51:00,
2013-10-02 17:56:00,78.1,75.9,29.99,SSW,202,0.0,0.0,93,0.00,,,0.00,WUHU21623XXSP,2013-10-02 22:56:00,
2013-10-02 18:01:00,78.1,75.9,29.99,SSW,202,0.0,0.0,93,0.00,,,0.00,WUHU21623XXSP,2013-10-02 23:01:00,
2013-10-02 18:06:00,77.7,75.6,29.99,WSW,247,0.0,0.0,93,0.00,,,0.00,WUHU21623XXSP,2013-10-02 23:06:00,
2013-10-02 18:11:00,77.7,75.9,29.99,South,180,0.0,0.0,94,0.00,,,0.00,WUHU21623XXSP,2013-10-02 23:11:00,
2013-10-02 18:16:00,77.5,75.7,29.99,South,180,6.5,6.5,94,0.00,,,0.00,WUHU21623XXSP,2013-10-02 23:16:00,
2013-10-02 18:21:00,77.2,75.3,29.99,South,180,0.0,6.5,94,0.00,,,0.00,WUHU21623XXSP,2013-10-02 23:21:00,
2013-10-02 18:26:00,77.0,75.3,29.98,SSE,157,0.0,0.0,94,0.00,,,0.00,WUHU21623XXSP,2013-10-02 23:26:00,
2013-10-02 18:31:00,76.8,74.7,29.99,SSE,157,0.0,0.0,93,0.00,,,0.00,WUHU21623XXSP,2013-10-02 23:31:00,
2013-10-02 18:36:00,76.6,75.0,29.99,South,180,0.0,0.0,94,0.00,,,0.00,WUHU21623XXSP,2013-10-02 23:36:00,
2013-10-02 18:41:00,76.5,74.6,29.99,SSE,157,1.8,1.8,94,0.00,,,0.00,WUHU21623XXSP,2013-10-02 23:41:00,
2013-10-02 18:46:00,76.3,74.4,29.99,South,180,0.0,1.8,94,0.00,,,0.00,WUHU21623XXSP,2013-10-02 23:46:00,
2013-10-02 18:51:00,75.9,74.3,29.99,South,180,0.0,1.8,94,0.00,,,0.00,WUHU21623XXSP,2013-10-02 23:51:00,
2013-10-02 18:56:00,75.7,73.9,30.00,South,180,0.0,0.0,94,0.00,,,0.00,WUHU21623XXSP,2013-10-02 23:56:00,
2013-10-02 19:01:00,75.4,73.7,29.99,South,180,0.0,0.0,94,0.00,,,0.00,WUHU21623XXSP,2013-10-03 00:01:00,
2013-10-02 19:06:00,75.0,73.5,29.99,South,180,0.0,0.0,95,0.00,,,0.00,WUHU21623XXSP,2013-10-03 00:06:00,
2013-10-02 19:11:00,74.8,73.3,29.99,South,180,0.0,0.0,95,0.00,,,0.00,WUHU21623XXSP,2013-10-03 00:11:00,
2013-10-02 19:16:00,74.5,73.3,29.99,South,180,0.0,0.0,95,0.00,,,0.00,WUHU21623XXSP,2013-10-03 00:16:00,
2013-10-02 19:21:00,74.1,72.8,30.00,South,180,0.0,0.0,95,0.00,,,0.00,WUHU21623XXSP,2013-10-03 00:21:00,
2013-10-02 19:26:00,73.9,72.4,29.99,South,180,0.0,0.0,95,0.00,,,0.00,WUHU21623XXSP,2013-10-03 00:26:00,
2013-10-02 19:31:00,73.9,72.4,30.00,South,180,0.0,0.0,95,0.00,,,0.00,WUHU21623XXSP,2013-10-03 00:31:00,
2013-10-02 19:36:00,73.6,72.1,30.00,South,180,0.0,0.0,95,0.00,,,0.00,WUHU21623XXSP,2013-10-03 00:36:00,
2013-10-02 19:41:00,73.2,71.7,30.00,South,180,0.0,0.0,95,0.00,,,0.00,WUHU21623XXSP,2013-10-03 00:41:00,
2013-10-02 19:46:00,73.2,71.7,30.00,South,180,0.0,0.0,95,0.00,,,0.00,WUHU21623XXSP,2013-10-03 00:46:00,
2013-10-02 19:51:00,73.0,71.5,30.00,South,180,0.0,0.0,95,0.00,,,0.00,WUHU21623XXSP,2013-10-03 00:51:00,
2013-10-02 19:56:00,73.0,71.5,30.00,South,180,0.0,0.0,95,0.00,,,0.00,WUHU21623XXSP,2013-10-03 00:56:00,
2013-10-02 20:01:00,72.7,71.2,30.00,South,180,0.0,0.0,95,0.00,,,0.00,WUHU21623XXSP,2013-10-03 01:01:00,
2013-10-02 20:06:00,72.7,71.2,30.00,South,180,0.0,0.0,95,0.00,,,0.00,WUHU21623XXSP,2013-10-03 01:06:00,
2013-10-02 20:11:00,72.5,71.0,30.00,South,180,0.0,0.0,95,0.00,,,0.00,WUHU21623XXSP,2013-10-03 01:11:00,
2013-10-02 20:16:00,72.5,71.0,30.00,South,180,0.0,0.0,95,0.00,,,0.00,WUHU21623XXSP,2013-10-03 01:16:00,
2013-10-02 20:21:00,72.5,71.0,30.00,South,180,0.0,0.0,95,0.00,,,0.00,WUHU21623XXSP,2013-10-03 01:21:00,
2013-10-02 20:26:00,72.3,70.8,30.00,South,180,0.0,0.0,95,0.00,,,0.00,WUHU21623XXSP,2013-10-03 01:26:00,
2013-10-02 20:31:00,72.3,70.8,30.00,South,180,0.0,0.0,95,0.00,,,0.00,WUHU21623XXSP,2013-10-03 01:31:00,
2013-10-02 20:36:00,72.1,70.6,30.00,South,180,0.0,0.0,95,0.00,,,0.00,WUHU21623XXSP,2013-10-03 01:36:00,
2013-10-02 20:41:00,72.1,70.6,30.00,South,180,0.0,0.0,95,0.00,,,0.00,WUHU21623XXSP,2013-10-03 01:41:00,
2013-10-02 20:46:00,72.0,70.4,30.00,South,180,0.0,0.0,95,0.00,,,0.00,WUHU21623XXSP,2013-10-03 01:46:00,
2013-10-02 20:51:00,71.8,70.3,30.00,South,180,0.0,0.0,95,0.00,,,0.00,WUHU21623XXSP,2013-10-03 01:51:00,
2013-10-02 20:56:00,71.6,70.1,30.01,South,180,0.0,0.0,95,0.00,,,0.00,WUHU21623XXSP,2013-10-03 01:56:00,
2013-10-02 21:01:00,71.4,69.9,30.01,South,180,0.0,0.0,95,0.00,,,0.00,WUHU21623XXSP,2013-10-03 02:01:00,
2013-10-02 21:06:00,71.4,70.2,30.01,South,180,0.0,0.0,96,0.00,,,0.00,WUHU21623XXSP,2013-10-03 02:06:00,
2013-10-02 21:11:00,71.4,70.2,30.01,South,180,0.0,0.0,96,0.00,,,0.00,WUHU21623XXSP,2013-10-03 02:11:00,
2013-10-02 21:16:00,71.2,70.0,30.01,South,180,0.0,0.0,96,0.00,,,0.00,WUHU21623XXSP,2013-10-03 02:16:00,
2013-10-02 21:21:00,71.2,70.0,30.02,South,180,0.0,0.0,96,0.00,,,0.00,WUHU21623XXSP,2013-10-03 02:21:00,
2013-10-02 21:26:00,71.2,70.0,30.02,South,180,0.0,0.0,96,0.00,,,0.00,WUHU21623XXSP,2013-10-03 02:26:00,
2013-10-02 21:31:00,71.2,70.0,30.02,SSW,202,0.0,0.0,96,0.00,,,0.00,WUHU21623XXSP,2013-10-03 02:31:00,
2013-10-02 21:36:00,71.2,70.0,30.02,South,180,0.0,0.0,96,0.00,,,0.00,WUHU21623XXSP,2013-10-03 02:36:00,
2013-10-02 21:41:00,71.2,70.0,30.02,South,180,0.0,0.0,96,0.00,,,0.00,WUHU21623XXSP,2013-10-03 02:41:00,
2013-10-02 21:46:00,71.2,70.0,30.01,South,180,0.0,0.0,96,0.00,,,0.00,WUHU21623XXSP,2013-10-03 02:46:00,
2013-10-02 21:51:00,71.2,70.0,30.01,South,180,0.0,0.0,96,0.00,,,0.00,WUHU21623XXSP,2013-10-03 02:51:00,
2013-10-02 21:56:00,71.2,70.0,30.01,South,180,0.0,0.0,96,0.00,,,0.00,WUHU21623XXSP,2013-10-03 02:56:00,
2013-10-02 22:01:00,71.2,70.0,30.01,South,180,0.0,0.0,96,0.00,,,0.00,WUHU21623XXSP,2013-10-03 03:01:00,
2013-10-02 22:06:00,71.2,70.0,30.02,South,180,0.0,0.0,96,0.00,,,0.00,WUHU21623XXSP,2013-10-03 03:06:00,
2013-10-02 22:11:00,71.1,69.8,30.02,South,180,0.0,0.0,96,0.00,,,0.00,WUHU21623XXSP,2013-10-03 03:11:00,
2013-10-02 22:16:00,70.9,69.7,30.02,South,180,0.0,0.0,96,0.00,,,0.00,WUHU21623XXSP,2013-10-03 03:16:00,
2013-10-02 22:21:00,70.7,69.5,30.02,South,180,0.0,0.0,96,0.00,,,0.00,WUHU21623XXSP,2013-10-03 03:21:00,
2013-10-02 22:26:00,70.7,69.5,30.02,South,180,0.0,0.0,96,0.00,,,0.00,WUHU21623XXSP,2013-10-03 03:26:00,
2013-10-02 22:31:00,70.7,69.5,30.02,South,180,0.0,0.0,96,0.00,,,0.00,WUHU21623XXSP,2013-10-03 03:31:00,
2013-10-02 22:36:00,70.5,69.3,30.02,South,180,0.0,0.0,96,0.00,,,0.00,WUHU21623XXSP,2013-10-03 03:36:00,
2013-10-02 22:41:00,70.5,69.3,30.02,South,180,0.0,0.0,96,0.00,,,0.00,WUHU21623XXSP,2013-10-03 03:41:00,
2013-10-02 22:46:00,70.5,69.0,30.02,South,180,0.0,0.0,95,0.00,,,0.00,WUHU21623XXSP,2013-10-03 03:46:00,
2013-10-02 22:51:00,70.5,69.0,30.02,South,180,0.0,0.0,95,0.00,,,0.00,WUHU21623XXSP,2013-10-03 03:51:00,
2013-10-02 22:56:00,70.3,68.8,30.02,South,180,0.0,0.0,95,0.00,,,0.00,WUHU21623XXSP,2013-10-03 03:56:00,
2013-10-02 23:01:00,70.2,68.6,30.02,South,180,0.0,0.0,95,0.00,,,0.00,WUHU21623XXSP,2013-10-03 04:01:00,
2013-10-02 23:06:00,70.0,68.6,30.02,South,180,0.0,0.0,95,0.00,,,0.00,WUHU21623XXSP,2013-10-03 04:06:00,
2013-10-02 23:11:00,69.8,68.3,30.02,South,180,0.0,0.0,95,0.00,,,0.00,WUHU21623XXSP,2013-10-03 04:11:00,
2013-10-02 23:16:00,69.6,68.1,30.02,South,180,0.0,0.0,95,0.00,,,0.00,WUHU21623XXSP,2013-10-03 04:16:00,
2013-10-02 23:21:00,69.6,68.1,30.02,South,180,0.0,0.0,95,0.00,,,0.00,WUHU21623XXSP,2013-10-03 04:21:00,
2013-10-02 23:26:00,69.4,67.9,30.03,South,180,0.0,0.0,95,0.00,,,0.00,WUHU21623XXSP,2013-10-03 04:26:00,
2013-10-02 23:31:00,69.4,67.9,30.03,South,180,0.0,0.0,95,0.00,,,0.00,WUHU21623XXSP,2013-10-03 04:31:00,